• Join FlightAware (Why Join?)
  • Login
  • US Flag 
01:04AM EDT


 

Airport Tracker/Info


-or-


 

Live Flight TrackerFlight Track Log ✈ N87CA ✈ 12-May-2013 ✈ KRYY - KAVL

Flight Track Log - Related Links

Times and Time Zones

All times are in EDT time to prevent confusion due to time zone crossing. See the N87CA flight status page for this flight to view local times or setup timezone preferences in your user account.

Time Position Orientation Groundspeed Altitude Reporting Facility
EDT Latitude Longitude Course Direction KTS MPH feet Rate Location/Type
12:51PM 34.1000 -84.5167 68° East 155 178 5,000  Level Atlanta TRACON
12:52PM 34.1167 -84.4667 68° East 173 199 5,800 660 Climbing Atlanta TRACON
12:53PM 34.1500 -84.4167 51° Northeast 177 204 6,400 600 Climbing Atlanta TRACON
12:54PM 34.1833 -84.3667 51° Northeast 178 205 7,000 420 Climbing Atlanta TRACON
12:55PM 34.2000 -84.3167 68° East 179 206 7,300 180 Climbing Atlanta TRACON
12:56PM 34.2500 -84.2667 40° Northeast 197 227 7,400 60 Climbing Atlanta TRACON
12:57PM 34.2594 -84.2422 65° Northeast 198 228 7,400  Level Atlanta Center
12:58PM 34.2931 -84.1897 52° Northeast 198 228 7,400  Level Atlanta Center
12:59PM 34.3328 -84.1344 49° Northeast 219 252 7,400  Level Atlanta Center
01:00PM 34.3683 -84.0842 49° Northeast 210 242 7,500  Climbing Atlanta Center
01:01PM 34.4017 -84.0336 51° Northeast 192 221 7,400 -120 Descending Atlanta Center
01:02PM 34.4350 -83.9858 50° Northeast 187 215 7,300  Descending Atlanta Center
01:03PM 34.4725 -83.9406 45° Northeast 187 215 7,400  Climbing Atlanta Center
01:04PM 34.5081 -83.8900 50° Northeast 187 215 7,300 -60 Descending Atlanta Center
01:05PM 34.5414 -83.8422 50° Northeast 187 215 7,300  Level Atlanta Center
01:06PM 34.5744 -83.7917 52° Northeast 187 215 7,400  Climbing Atlanta Center
01:07PM 34.6100 -83.7408 50° Northeast 187 215 7,400 -60 Level Atlanta Center
01:08PM 34.6433 -83.6953 48° Northeast 187 215 7,300 -60 Descending Atlanta Center
01:09PM 34.6764 -83.6472 50° Northeast 187 215 7,300  Level Atlanta Center
01:10PM 34.7117 -83.5992 48° Northeast 187 215 7,300  Level Atlanta Center
01:11PM 34.7469 -83.5433 52° Northeast 182 209 7,400  Climbing Atlanta Center
01:12PM 34.7844 -83.4925 48° Northeast 189 217 7,300  Descending Atlanta Center
01:13PM 34.8197 -83.4392 51° Northeast 189 217 7,400  Climbing Atlanta Center
01:14PM 34.8528 -83.3933 49° Northeast 188 216 7,300  Descending Atlanta Center
01:15PM 34.8881 -83.3450 48° Northeast 183 211 7,400  Climbing Atlanta Center
01:16PM 34.9189 -83.2967 52° Northeast 183 211 7,400  Level Atlanta Center
01:17PM 34.9606 -83.2506 42° Northeast 183 211 7,400 -60 Level Atlanta Center
01:18PM 34.9936 -83.2047 49° Northeast 190 219 7,300 -60 Descending Atlanta Center
01:19PM 35.0267 -83.1586 49° Northeast 190 219 7,300  Level Atlanta Center
01:20PM 35.0492 -83.1000 65° Northeast 185 213 7,400  Climbing Atlanta Center
01:21PM 35.0717 -83.0414 65° Northeast 180 207 7,400  Level Atlanta Center
01:22PM 35.1003 -82.9903 56° Northeast 188 216 7,400 -60 Level Atlanta Center
01:23PM 35.1311 -82.9339 56° Northeast 188 216 7,300 -180 Descending Atlanta Center
01:24PM 35.1597 -82.8753 59° Northeast 188 216 7,100 -300 Descending Atlanta Center
01:25PM 35.1906 -82.8214 55° Northeast 188 216 6,800 -540 Descending Atlanta Center
01:26PM 35.2214 -82.7728 52° Northeast 188 216 6,100 -780 Descending Atlanta Center
01:27PM 35.2542 -82.7239 51° Northeast 183 211 5,300 -660 Descending Atlanta Center
01:28PM 35.2956 -82.6825 39° Northeast 183 211 4,800 1,080 Descending Atlanta Center
01:29PM 35.3219 -82.6183 63° Northeast 183 211 7,500 1,320 Climbing Atlanta Center
01:30PM 35.3589 -82.5669 49° Northeast 183 211 7,500  Level Atlanta Center
01:32PM 35.4333 -82.5333 48° Northeast  Level FlightAware Approximate
01:39PM 35.4362 -82.5418 48° Northeast  Level Estimated
01:40PM 35.4362 -82.5418 48° Northeast  Level Estimated
01:41PM 35.4362 -82.5418 48° Northeast  Level Estimated
01:42PM 35.4362 -82.5418 48° Northeast  Level Estimated
01:43PM 35.4362 -82.5418 48° Northeast  Level Estimated
01:44PM 35.4362 -82.5418 48° Northeast  Level Estimated